Latest Weather Observations for Luncheon Hill

IDT60801

Issued at 3:02 am EDT Monday 20 November 2017 (issued every 30 minutes, with the page automatically refreshed every 10 minutes)

About weather observations | Map of weather stations | Latest weather observations for TAS | Other Formats
Station Details ID: 091259 Name: LUNCHEON HILL (FORESTRY) Lat: -41.15 Lon: 145.15 Height: 344.0 m
Data from the previous 72 hours. | See also: Recent months at Luncheon Hill
Date/Time
EDT
Temp
°C
App
Temp
°C
Dew
Point
°C
Rel
Hum
%
Delta-T
°C
Wind Press
QNH
hPa
Press
MSL
hPa
Rain since
9am
mm
Dir  Spd
km/h
Gust
km/h
Spd
kts
Gust
kts
20/03:00am 14.0 10.7 12.7 92 0.7 ENE 22 37 12 20 - - 0.0
20/02:30am 14.1 10.0 12.8 92 0.7 ENE 26 39 14 21 - - 0.0
20/02:00am 14.1 9.7 12.8 92 0.7 ENE 28 39 15 21 - - 0.0
20/01:30am 14.4 10.1 13.1 92 0.7 ENE 28 39 15 21 - - 0.0
20/01:00am 14.5 10.9 13.2 92 0.7 ENE 24 33 13 18 - - 0.0
20/12:30am 14.4 12.1 13.1 92 0.7 ENE 17 24 9 13 - - 0.0
20/12:00am 14.5 11.3 13.0 91 0.8 ENE 22 32 12 17 - - 0.0
 
Date/Time
EDT
Temp
°C
App
Temp
°C
Dew
Point
°C
Rel
Hum
%
Delta-T
°C
Wind Press
QNH
hPa
Press
MSL
hPa
Rain since
9am
mm
Dir  Spd
km/h
Gust
km/h
Spd
kts
Gust
kts
19/11:30pm 14.7 12.4 12.9 89 1.0 E 17 28 9 15 - - 0.0
19/11:00pm 14.8 12.1 12.8 88 1.1 E 19 28 10 15 - - 0.0
19/10:30pm 15.2 12.6 13.1 87 1.2 ENE 19 26 10 14 - - 0.0
19/10:00pm 15.4 12.8 13.1 86 1.3 ENE 19 30 10 16 - - 0.0
19/09:30pm 15.6 12.4 13.1 85 1.4 ENE 22 35 12 19 - - 0.0
19/09:00pm 16.1 12.2 13.2 83 1.6 ENE 26 41 14 22 - - 0.0
19/08:30pm 16.5 13.2 12.8 79 2.1 ENE 22 32 12 17 - - 0.0
19/08:00pm 17.2 12.6 12.3 73 2.7 ENE 28 35 15 19 - - 0.0
19/07:30pm 17.9 13.1 11.7 67 3.5 ENE 28 46 15 25 - - 0.0
19/07:26pm 18.1 13.3 11.7 66 3.6 NE 28 46 15 25 - - 0.0
19/07:00pm 18.6 13.0 11.4 63 4.0 NE 32 43 17 23 - - 0.0
19/06:30pm 19.3 15.3 11.8 62 4.2 ENE 24 35 13 19 - - 0.0
19/06:00pm 19.4 13.9 11.7 61 4.3 ENE 32 46 17 25 - - 0.0
19/05:30pm 20.0 14.4 11.5 58 4.8 ENE 32 50 17 27 - - 0.0
19/05:00pm 20.9 15.4 11.8 56 5.2 NE 32 52 17 28 - - 0.0
19/04:58pm 20.7 15.0 11.9 57 5.0 NE 33 52 18 28 - - 0.0
19/04:30pm 21.1 14.9 11.4 54 5.5 NE 35 48 19 26 - - 0.0
19/04:22pm 21.5 16.3 11.5 53 5.7 NE 30 48 16 26 - - 0.0
19/04:00pm 22.0 16.1 12.3 54 5.6 NE 35 44 19 24 - - 0.0
19/03:30pm 21.2 15.6 11.5 54 5.5 NE 32 46 17 25 - - 0.0
19/03:11pm 20.9 16.1 11.5 55 5.3 ENE 28 48 15 26 - - 0.0
19/03:00pm 20.5 15.3 11.7 57 5.0 ENE 30 43 16 23 - - 0.0
19/02:30pm 20.9 15.6 11.3 54 5.4 ENE 30 48 16 26 - - 0.0
19/02:00pm 20.8 15.1 11.7 56 5.1 NE 33 46 18 25 - - 0.0
19/01:48pm 21.1 16.0 12.0 56 5.2 ENE 30 48 16 26 - - 0.0
19/01:30pm 20.8 14.9 12.5 59 4.8 NE 35 44 19 24 - - 0.0
19/01:00pm 20.6 15.8 12.8 61 4.5 NE 30 44 16 24 - - 0.0
19/12:42pm 19.9 15.5 12.9 64 4.0 ENE 28 46 15 25 - - 0.0
19/12:30pm 19.0 13.5 12.0 64 3.9 ENE 32 46 17 25 - - 0.0
19/12:24pm 19.5 15.1 12.8 65 3.8 ENE 28 46 15 25 - - 0.0
19/12:00pm 19.1 14.8 13.1 68 3.4 ENE 28 43 15 23 - - 0.0
19/11:48am 19.0 14.8 13.4 70 3.2 NE 28 46 15 25 - - 0.0
19/11:30am 18.3 13.2 13.0 71 3.0 NE 32 41 17 22 - - 0.0
19/11:00am 18.4 14.4 13.1 71 3.0 ENE 26 37 14 20 - - 0.0
19/10:30am 18.1 12.9 12.8 71 3.0 ENE 32 46 17 25 - - 0.0
19/10:24am 18.0 13.5 12.7 71 3.0 ENE 28 46 15 25 - - 0.0
19/10:00am 17.2 11.8 12.9 76 2.4 ENE 33 44 18 24 - - 0.0
19/09:33am 16.6 11.8 12.9 79 2.1 ENE 30 48 16 26 - - 0.0
19/09:30am 16.4 11.1 12.6 78 2.1 ENE 32 48 17 26 - - 0.0
19/09:00am 16.4 11.6 12.8 79 2.0 ENE 30 43 16 23 - - 0.0
19/08:33am 16.2 11.7 12.7 80 2.0 ENE 28 46 15 25 - - 0.0
19/08:30am 16.1 11.2 12.7 80 1.9 ENE 30 46 16 25 - - 0.0
19/08:03am 15.8 10.9 12.5 81 1.8 ENE 30 48 16 26 - - 0.0
19/08:00am 15.8 11.3 12.5 81 1.8 ENE 28 43 15 23 - - 0.0
19/07:31am 15.1 10.2 12.4 84 1.5 ENE 30 48 16 26 - - 0.0
19/07:30am 15.2 9.9 12.5 84 1.5 ENE 32 48 17 26 - - 0.0
19/07:00am 14.8 9.9 12.7 87 1.2 ENE 30 52 16 28 - - 0.0
19/06:37am 14.7 10.2 12.7 88 1.1 ENE 28 46 15 25 - - 0.0
19/06:30am 14.7 11.4 12.7 88 1.1 ENE 22 35 12 19 - - 0.0
19/06:00am 14.5 9.6 12.5 88 1.1 ENE 30 39 16 21 - - 0.0
19/05:30am 14.7 10.2 12.7 88 1.1 ENE 28 43 15 23 - - 0.0
19/05:00am 14.8 9.0 12.8 88 1.1 ENE 35 48 19 26 - - 0.0
19/04:33am 14.8 10.4 13.0 89 1.0 ENE 28 46 15 25 - - 0.0
19/04:30am 14.8 10.0 13.0 89 1.0 ENE 30 46 16 25 - - 0.0
19/04:00am 14.8 10.0 13.0 89 1.0 ENE 30 46 16 25 - - 0.0
19/03:30am 14.8 9.5 13.0 89 1.0 ENE 33 50 18 27 - - 0.0
19/03:02am 14.8 9.1 13.0 89 1.0 ENE 35 54 19 29 - - 0.0
19/03:00am 14.8 9.1 13.0 89 1.0 ENE 35 48 19 26 - - 0.0
19/02:33am 14.6 9.4 12.8 89 1.0 ENE 32 50 17 27 - - 0.0
19/02:30am 14.6 9.4 12.8 89 1.0 ENE 32 44 17 24 - - 0.0
19/02:19am 14.6 8.4 12.8 89 1.0 ENE 37 57 20 31 - - 0.0
19/02:00am 14.5 9.1 12.7 89 1.0 ENE 33 46 18 25 - - 0.0
19/01:38am 14.6 9.4 12.8 89 1.0 ENE 32 50 17 27 - - 0.0
19/01:30am 14.5 10.5 12.9 90 0.9 ENE 26 39 14 21 - - 0.0
19/01:07am 14.4 10.0 12.8 90 0.9 ENE 28 52 15 28 - - 0.0
19/01:00am 14.3 10.2 12.7 90 0.9 ENE 26 39 14 21 - - 0.0
19/12:30am 14.3 10.6 12.7 90 0.9 ENE 24 41 13 22 - - 0.0
19/12:00am 14.4 11.1 12.8 90 0.9 ENE 22 33 12 18 - - 0.0
 
Date/Time
EDT
Temp
°C
App
Temp
°C
Dew
Point
°C
Rel
Hum
%
Delta-T
°C
Wind Press
QNH
hPa
Press
MSL
hPa
Rain since
9am
mm
Dir  Spd
km/h
Gust
km/h
Spd
kts
Gust
kts
18/11:30pm 14.6 10.6 13.0 90 0.9 ENE 26 39 14 21 - - 0.0
18/11:00pm 14.9 10.6 13.1 89 1.0 ENE 28 52 15 28 - - 0.0
18/10:30pm 15.2 11.3 13.2 88 1.1 ENE 26 46 14 25 - - 0.0
18/10:16pm 15.2 10.9 13.2 88 1.1 ENE 28 48 15 26 - - 0.0
18/10:00pm 15.3 11.7 13.2 87 1.2 ENE 24 44 13 24 - - 0.0
18/09:30pm 15.6 11.3 13.3 86 1.3 ENE 28 43 15 23 - - 0.0
18/09:00pm 16.0 11.9 13.7 86 1.3 ENE 28 39 15 21 - - 0.0
18/08:52pm 16.0 11.9 13.7 86 1.3 ENE 28 46 15 25 - - 0.0
18/08:30pm 16.0 11.9 13.7 86 1.3 ENE 28 41 15 22 - - 0.0
18/08:00pm 16.2 10.7 13.7 85 1.4 NE 35 48 19 26 - - 0.0
18/07:30pm 16.5 11.4 13.8 84 1.6 ENE 33 50 18 27 - - 0.0
18/07:29pm 16.5 11.6 13.8 84 1.6 ENE 32 50 17 27 - - 0.0
18/07:00pm 16.7 11.6 13.8 83 1.7 ENE 33 50 18 27 - - 0.0
18/06:34pm 17.0 12.6 14.1 83 1.7 ENE 30 48 16 26 - - 0.0
18/06:30pm 17.0 12.0 13.9 82 1.8 ENE 33 48 18 26 - - 0.0
18/06:00pm 17.3 12.1 14.4 83 1.7 ENE 35 54 19 29 - - 0.0
18/05:42pm 17.1 12.4 14.4 84 1.6 ENE 32 50 17 27 - - 0.0
18/05:30pm 16.8 12.9 14.3 85 1.5 ENE 28 44 15 24 - - 0.0
18/05:03pm 17.0 12.3 14.3 84 1.6 ENE 32 50 17 27 - - 0.0
18/05:00pm 17.1 12.2 14.4 84 1.6 ENE 33 50 18 27 - - 0.0
18/04:30pm 17.5 11.3 14.8 84 1.6 ENE 41 59 22 32 - - 0.0
18/04:04pm 17.6 11.3 14.7 83 1.7 ENE 41 59 22 32 - - 0.0
18/04:00pm 17.5 10.8 14.6 83 1.7 ENE 43 59 23 32 - - 0.0
18/03:31pm 18.5 13.5 15.0 80 2.1 NE 35 57 19 31 - - 0.0
18/03:30pm 18.4 13.7 14.9 80 2.1 NE 33 50 18 27 - - 0.0
18/03:09pm 17.9 11.7 14.8 82 1.8 ENE 41 61 22 33 - - 0.0
18/03:00pm 17.7 11.8 14.8 83 1.7 ENE 39 54 21 29 - - 0.0
18/02:32pm 17.8 12.7 14.7 82 1.8 ENE 35 54 19 29 - - 0.0
18/02:30pm 17.8 12.3 14.7 82 1.8 ENE 37 54 20 29 - - 0.0
18/02:00pm 17.2 11.9 14.3 83 1.7 ENE 35 54 19 29 - - 0.0
18/01:50pm 18.1 14.3 14.8 81 1.9 ENE 28 46 15 25 - - 0.0
18/01:30pm 17.4 12.2 14.5 83 1.7 ENE 35 50 19 27 - - 0.0
18/01:12pm 17.3 11.3 14.4 83 1.7 NE 39 57 21 31 - - 0.0
18/01:00pm 17.5 11.5 14.4 82 1.8 NE 39 56 21 30 - - 0.0
18/12:30pm 17.2 12.0 14.5 84 1.6 NE 35 48 19 26 - - 0.0
18/12:03pm 16.8 11.9 14.4 86 1.4 ENE 33 54 18 29 - - 0.0
18/12:00pm 17.0 12.2 14.6 86 1.4 ENE 33 48 18 26 - - 0.0
18/11:42am 16.5 11.3 14.5 88 1.2 ENE 35 54 19 29 - - 0.0
18/11:30am 16.5 11.2 14.3 87 1.3 ENE 35 52 19 28 - - 0.0
18/11:27am 16.5 11.7 14.5 88 1.2 ENE 33 52 18 28 - - 0.0
18/11:00am 16.1 12.2 14.3 89 1.0 ENE 28 41 15 22 - - 0.0
18/10:31am 16.1 11.4 14.3 89 1.0 ENE 32 50 17 27 - - 0.0
18/10:30am 16.2 11.5 14.4 89 1.0 ENE 32 44 17 24 - - 0.0
18/10:00am 16.2 11.0 14.4 89 1.0 ENE 35 56 19 30 - - 0.0
18/09:36am 16.3 11.1 14.5 89 1.0 ENE 35 54 19 29 - - 0.0
18/09:30am 16.1 10.4 14.3 89 1.0 ENE 37 52 20 28 - - 0.0
18/09:04am 16.1 9.3 14.3 89 1.0 ENE 43 61 23 33 - - 0.0
18/09:00am 16.1 9.1 14.3 89 1.0 ENE 44 61 24 33 - - 0.8
18/08:30am 15.9 9.4 14.1 89 1.0 ENE 41 67 22 36 - - 0.8
18/08:00am 15.8 10.1 14.3 91 0.9 ENE 37 61 20 33 - - 0.8
18/07:34am 15.3 8.8 14.0 92 0.7 ENE 41 63 22 34 - - 0.8
18/07:30am 15.3 8.8 14.0 92 0.7 ENE 41 56 22 30 - - 0.8
18/07:00am 15.3 8.8 14.0 92 0.7 ENE 41 65 22 35 - - 0.8
18/06:30am 15.1 9.0 14.0 93 0.6 ENE 39 61 21 33 - - 0.8
18/06:25am 15.1 9.4 14.1 94 0.6 ENE 37 57 20 31 - - 0.8
18/06:00am 15.1 9.0 14.0 93 0.6 ENE 39 54 21 29 - - 0.8
18/05:30am 15.2 9.5 14.1 93 0.6 ENE 37 56 20 30 - - 0.8
18/05:00am 15.2 9.5 14.1 93 0.6 ENE 37 59 20 32 - - 0.8
18/04:32am 15.2 9.5 14.1 93 0.6 ENE 37 59 20 32 - - 0.8
18/04:30am 15.2 9.5 14.1 93 0.6 ENE 37 54 20 29 - - 0.8
18/04:00am 15.4 8.9 14.1 92 0.7 ENE 41 67 22 36 - - 0.8
18/03:30am 15.3 9.6 14.2 93 0.6 ENE 37 63 20 34 - - 0.8
18/03:00am 15.3 9.2 14.0 92 0.7 ENE 39 70 21 38 - - 0.8
18/02:59am 15.3 9.2 14.0 92 0.7 ENE 39 70 21 38 - - 0.8
18/02:30am 15.3 10.5 14.0 92 0.7 ENE 32 52 17 28 - - 0.8
18/02:02am 15.5 10.1 13.9 90 0.9 ENE 35 54 19 29 - - 0.8
18/02:00am 15.5 10.1 13.9 90 0.9 ENE 35 50 19 27 - - 0.8
18/01:31am 15.5 9.3 13.7 89 1.0 ENE 39 57 21 31 - - 0.8
18/01:30am 15.5 8.9 13.7 89 1.0 ENE 41 57 22 31 - - 0.8
18/01:00am 15.5 9.3 13.7 89 1.0 ENE 39 59 21 32 - - 0.8
18/12:30am 15.2 10.4 13.9 92 0.7 ENE 32 54 17 29 - - 0.8
18/12:14am 14.9 10.1 13.9 94 0.6 ENE 32 52 17 28 - - 0.8
18/12:00am 14.8 10.7 13.8 94 0.6 ENE 28 44 15 24 - - 0.8
 
Date/Time
EDT
Temp
°C
App
Temp
°C
Dew
Point
°C
Rel
Hum
%
Delta-T
°C
Wind Press
QNH
hPa
Press
MSL
hPa
Rain since
9am
mm
Dir  Spd
km/h
Gust
km/h
Spd
kts
Gust
kts
17/11:33pm 14.7 10.6 13.7 94 0.6 ENE 28 46 15 25 - - 0.4
17/11:30pm 14.7 10.6 13.7 94 0.6 ENE 28 41 15 22 - - 0.4
17/11:00pm 14.7 10.8 13.2 91 0.8 E 26 46 14 25 - - 0.0
17/10:30pm 14.8 10.3 12.7 87 1.2 E 28 44 15 24 - - 0.0
17/10:00pm 15.5 10.2 12.4 82 1.7 ENE 32 50 17 27 - - 0.0
17/09:46pm 15.7 11.1 12.3 80 1.9 E 28 48 15 26 - - 0.0
17/09:30pm 15.7 12.3 12.6 82 1.7 ENE 22 43 12 23 - - 0.0
17/09:03pm 16.1 11.0 13.0 82 1.8 ENE 32 57 17 31 - - 0.0
17/09:00pm 16.2 11.1 13.1 82 1.8 ENE 32 46 17 25 - - 0.0
17/08:30pm 16.6 11.3 13.1 80 2.0 ENE 33 56 18 30 - - 0.0
17/08:24pm 16.6 11.9 13.1 80 2.0 ENE 30 54 16 29 - - 0.0
17/08:00pm 16.7 13.8 13.0 79 2.1 E 20 39 11 21 - - 0.0
17/07:30pm 17.4 12.5 12.7 74 2.7 ENE 30 52 16 28 - - 0.0
17/07:05pm 17.9 13.5 12.8 72 2.9 ENE 28 48 15 26 - - 0.0
17/07:00pm 18.1 13.6 12.5 70 3.2 ENE 28 43 15 23 - - 0.0
17/06:30pm 19.0 13.6 12.3 65 3.8 ENE 32 54 17 29 - - 0.0
17/06:00pm 19.4 14.2 12.7 65 3.8 ENE 32 52 17 28 - - 0.0
17/05:48pm 19.3 13.6 11.8 62 4.2 ENE 33 52 18 28 - - 0.0
17/05:30pm 20.1 14.6 12.3 61 4.4 ENE 33 48 18 26 - - 0.0
17/05:01pm 20.4 14.7 11.3 56 5.1 ENE 32 59 17 32 - - 0.0
17/05:00pm 20.7 15.1 11.6 56 5.1 ENE 32 46 17 25 - - 0.0
17/04:33pm 20.0 14.3 11.2 57 4.9 ENE 32 54 17 29 - - 0.0
17/04:30pm 20.4 15.5 12.4 60 4.6 ENE 30 46 16 25 - - 0.0
17/04:00pm 19.1 13.8 13.1 68 3.4 ENE 33 54 18 29 - - 0.0
17/03:30pm 19.1 13.0 13.1 68 3.4 ENE 37 56 20 30 - - 0.0
17/03:00pm 18.8 13.5 13.0 69 3.3 ENE 33 52 18 28 - - 0.0
17/02:36pm 18.7 12.1 12.7 68 3.4 ENE 39 57 21 31 - - 0.0
17/02:30pm 18.6 11.5 12.1 66 3.7 ENE 41 57 22 31 - - 0.0
17/02:26pm 18.6 11.8 12.1 66 3.7 ENE 39 56 21 30 - - 0.0
17/02:00pm 19.0 13.3 11.8 63 4.0 E 33 54 18 29 - - 0.0
17/01:30pm 18.7 13.1 12.0 65 3.8 ENE 33 52 18 28 - - 0.0
17/01:00pm 18.8 12.9 12.3 66 3.7 E 35 54 19 29 - - 0.0
17/12:30pm 18.2 11.4 12.0 67 3.5 ENE 39 61 21 33 - - 0.0
17/12:00pm 19.0 13.1 12.3 65 3.8 ENE 35 67 19 36 - - 0.0
17/11:30am 18.7 13.0 11.8 64 3.9 E 33 57 18 31 - - 0.0
17/11:00am 18.9 13.4 12.4 66 3.7 E 33 57 18 31 - - 0.0
17/10:30am 18.4 11.7 12.4 68 3.4 ENE 39 69 21 37 - - 0.0
17/10:00am 18.1 11.4 12.3 69 3.3 E 39 61 21 33 - - 0.0
17/09:30am 17.8 10.6 11.8 68 3.3 ENE 41 61 22 33 - - 0.0
17/09:00am 17.7 12.9 11.5 67 3.4 E 28 48 15 26 - - 0.0
17/08:30am 17.9 12.2 11.9 68 3.4 E 33 57 18 31 - - 0.0
17/08:00am 17.0 11.3 11.7 71 2.9 ENE 33 56 18 30 - - 0.0
17/07:30am 16.6 11.1 11.7 73 2.7 ENE 32 50 17 27 - - 0.0
17/07:00am 15.9 10.2 11.7 76 2.3 E 33 54 18 29 - - 0.0
17/06:37am 15.5 10.3 11.5 77 2.2 E 30 48 16 26 - - 0.0
17/06:30am 15.4 10.2 11.6 78 2.1 ENE 30 46 16 25 - - 0.0
17/06:00am 15.2 9.4 11.4 78 2.1 E 33 59 18 32 - - 0.0
17/05:30am 15.2 9.1 11.6 79 2.0 E 35 54 19 29 - - 0.0
17/05:00am 15.4 9.7 11.8 79 2.0 ENE 33 54 18 29 - - 0.0
17/04:33am 15.5 9.3 11.5 77 2.2 ENE 35 57 19 31 - - 0.0
17/04:30am 15.5 9.7 11.5 77 2.2 ENE 33 50 18 27 - - 0.0
17/04:00am 15.5 9.3 11.5 77 2.2 ENE 35 57 19 31 - - 0.0
17/03:30am 15.6 9.4 11.4 76 2.3 ENE 35 61 19 33 - - 0.0

Other Formats:

Comma delimited format used in spreadsheet applications
http://www.bom.gov.au/fwo/IDT60801/IDT60801.95956.axf

JavaScript Object Notation format (JSON) in row-major order
http://www.bom.gov.au/fwo/IDT60801/IDT60801.95956.json